createdAt,value
2023-07-18T00:00:34.204Z,29.00
2023-07-18T00:03:02.517Z,26.75
2023-07-18T00:05:30.783Z,27.00
2023-07-18T00:07:59.037Z,27.60
2023-07-18T00:10:28.669Z,27.60
2023-07-18T00:12:56.879Z,28.00
2023-07-18T00:15:26.197Z,25.00
2023-07-18T00:17:54.989Z,27.25
2023-07-18T00:20:24.646Z,27.75
2023-07-18T00:22:53.377Z,29.50
2023-07-18T00:25:22.157Z,26.50
2023-07-18T00:27:55.531Z,29.00
2023-07-18T00:30:24.504Z,28.00
2023-07-18T00:32:53.494Z,24.50
2023-07-18T00:35:24.589Z,27.25
2023-07-18T00:37:53.708Z,28.00
2023-07-18T00:40:22.014Z,25.25
2023-07-18T00:42:51.905Z,27.20
2023-07-18T00:45:21.859Z,29.00
2023-07-18T00:47:50.697Z,26.40
2023-07-18T00:50:19.930Z,29.20
2023-07-18T00:52:50.260Z,30.00
2023-07-18T00:55:19.274Z,30.00
2023-07-18T00:57:54.578Z,29.75
2023-07-18T01:00:24.324Z,29.00
2023-07-18T01:02:53.218Z,29.60
2023-07-18T01:05:22.203Z,28.60
2023-07-18T01:07:51.889Z,28.80
2023-07-18T01:10:24.496Z,29.75
2023-07-18T01:12:56.112Z,28.00
2023-07-18T01:15:26.549Z,28.80
2023-07-18T01:17:55.282Z,27.00
2023-07-18T01:20:24.505Z,27.00
2023-07-18T01:22:55.085Z,27.50
2023-07-18T01:25:23.723Z,26.00
2023-07-18T01:27:52.886Z,28.00
2023-07-18T01:30:22.234Z,26.75
2023-07-18T01:32:50.907Z,27.00
2023-07-18T01:35:21.097Z,27.75
2023-07-18T01:37:49.852Z,25.00
2023-07-18T01:40:21.693Z,27.00
2023-07-18T01:42:51.650Z,25.00
2023-07-18T01:45:22.016Z,25.00
2023-07-18T01:47:51.269Z,27.50
2023-07-18T01:50:20.733Z,25.75
2023-07-18T01:52:49.699Z,26.00
2023-07-18T01:55:19.690Z,27.25
2023-07-18T01:57:49.518Z,25.00
2023-07-18T02:00:21.984Z,27.00
2023-07-18T02:02:52.832Z,26.00
2023-07-18T02:05:22.582Z,26.00
2023-07-18T02:07:51.110Z,24.00
2023-07-18T02:10:22.186Z,24.00
2023-07-18T02:12:51.928Z,24.50
2023-07-18T02:15:21.751Z,25.75
2023-07-18T02:17:50.469Z,26.00
2023-07-18T02:20:19.861Z,25.00
2023-07-18T02:22:48.322Z,26.00
2023-07-18T02:25:18.748Z,25.50
2023-07-18T02:27:49.569Z,26.50
2023-07-18T02:30:18.430Z,24.75
2023-07-18T02:32:47.173Z,25.25
2023-07-18T02:35:19.544Z,25.50
2023-07-18T02:37:48.769Z,24.00
2023-07-18T02:40:19.008Z,25.00
2023-07-18T02:42:49.803Z,26.00
2023-07-18T02:45:18.114Z,24.00
2023-07-18T02:47:46.314Z,25.50
2023-07-18T02:50:15.578Z,26.00
2023-07-18T02:52:43.834Z,25.00
2023-07-18T02:55:12.141Z,25.00
2023-07-18T02:57:40.433Z,25.00
2023-07-18T03:00:20.910Z,24.25
2023-07-18T03:02:50.651Z,26.00
2023-07-18T03:05:19.426Z,22.25
2023-07-18T03:07:48.883Z,25.00
2023-07-18T03:10:17.593Z,21.00
2023-07-18T03:12:47.762Z,22.25
2023-07-18T03:15:17.863Z,22.25
2023-07-18T03:17:46.275Z,11.50
2023-07-18T03:20:20.734Z,24.00
2023-07-18T03:22:52.365Z,22.25
2023-07-18T03:25:22.214Z,22.00
2023-07-18T03:27:50.699Z,24.00
2023-07-18T03:30:20.437Z,26.75
2023-07-18T03:32:48.651Z,23.75
2023-07-18T03:35:16.893Z,23.75
2023-07-18T03:37:45.081Z,24.00
2023-07-18T03:40:17.350Z,23.50
2023-07-18T03:42:47.672Z,23.50
2023-07-18T03:45:16.831Z,23.50
2023-07-18T03:47:47.529Z,22.50
2023-07-18T03:50:17.474Z,23.50
2023-07-18T03:52:45.953Z,24.50
2023-07-18T03:55:14.146Z,24.50
2023-07-18T03:57:43.220Z,19.50
2023-07-18T04:00:15.843Z,24.00
2023-07-18T04:02:47.039Z,23.50
2023-07-18T04:05:18.962Z,24.75
2023-07-18T04:07:48.069Z,24.00
2023-07-18T04:10:16.273Z,23.25
2023-07-18T04:12:44.656Z,24.00
2023-07-18T04:15:14.045Z,22.25
2023-07-18T04:17:42.415Z,21.25
2023-07-18T04:20:11.576Z,23.50
2023-07-18T04:22:42.347Z,22.25
2023-07-18T04:25:11.057Z,21.25
2023-07-18T04:27:39.312Z,22.75
2023-07-18T04:30:08.523Z,21.75
2023-07-18T04:32:36.720Z,21.75
2023-07-18T04:35:07.877Z,20.75
2023-07-18T04:37:36.149Z,20.00
2023-07-18T04:40:07.358Z,18.25
2023-07-18T04:42:35.638Z,22.50
2023-07-18T04:45:04.051Z,21.25
2023-07-18T04:47:33.726Z,21.25
2023-07-18T04:50:01.966Z,20.25
2023-07-18T04:52:31.646Z,19.75
2023-07-18T04:54:59.801Z,18.75
2023-07-18T04:57:30.019Z,19.50
2023-07-18T04:59:58.315Z,19.75
2023-07-18T05:02:26.504Z,18.75
2023-07-18T05:04:54.869Z,20.00
2023-07-18T05:07:23.108Z,19.75
2023-07-18T05:09:53.193Z,20.00
2023-07-18T05:12:21.948Z,17.25
2023-07-18T05:14:51.597Z,19.75
2023-07-18T05:17:19.776Z,19.50
2023-07-18T05:19:48.132Z,19.25
2023-07-18T05:22:16.424Z,20.75
2023-07-18T05:24:44.675Z,20.00
2023-07-18T05:27:13.499Z,19.25
2023-07-18T05:29:41.962Z,19.50
2023-07-18T05:32:11.950Z,17.75
2023-07-18T05:34:40.257Z,20.50
2023-07-18T05:37:08.652Z,20.00
2023-07-18T05:39:36.768Z,20.00
2023-07-18T05:42:05.719Z,20.00
2023-07-18T05:44:34.042Z,19.75
2023-07-18T05:47:02.248Z,17.25
2023-07-18T05:49:32.123Z,14.25
2023-07-18T05:52:00.670Z,17.00
2023-07-18T05:54:30.370Z,14.50
2023-07-18T05:56:59.448Z,17.75
2023-07-18T05:59:29.194Z,16.50
2023-07-18T06:01:57.824Z,16.75
2023-07-18T06:04:26.068Z,16.75
2023-07-18T06:06:57.222Z,19.00
2023-07-18T06:09:25.461Z,17.50
2023-07-18T06:11:53.909Z,18.50
2023-07-18T06:14:22.358Z,19.00
2023-07-18T06:16:50.562Z,16.00
2023-07-18T06:19:18.881Z,16.75
2023-07-18T06:21:47.227Z,14.75
2023-07-18T06:24:19.478Z,15.00
2023-07-18T06:26:50.633Z,15.00
2023-07-18T06:29:19.547Z,15.00
2023-07-18T06:31:48.433Z,16.50
2023-07-18T06:34:18.731Z,16.00
2023-07-18T06:36:48.119Z,15.75
2023-07-18T06:39:19.527Z,14.00
2023-07-18T06:41:47.989Z,11.50
2023-07-18T06:44:16.767Z,13.00
2023-07-18T06:46:45.385Z,13.00
2023-07-18T06:49:14.601Z,14.00
2023-07-18T06:51:44.026Z,14.00
2023-07-18T06:54:12.498Z,12.00
2023-07-18T06:56:44.003Z,12.50
2023-07-18T06:59:12.302Z,11.75
2023-07-18T07:01:40.565Z,11.50
2023-07-18T07:04:09.260Z,11.25
2023-07-18T07:06:43.101Z,11.50
2023-07-18T07:09:14.372Z,6.00
2023-07-18T07:11:44.710Z,11.75
2023-07-18T07:14:13.889Z,7.75
2023-07-18T07:16:42.281Z,4.00
2023-07-18T07:19:10.862Z,11.00
2023-07-18T07:21:39.577Z,11.00
2023-07-18T07:24:10.854Z,8.50
2023-07-18T07:26:39.821Z,8.75
2023-07-18T07:29:10.798Z,7.50
2023-07-18T07:31:39.354Z,9.25
2023-07-18T07:34:07.893Z,10.75
2023-07-18T07:36:36.178Z,13.00
2023-07-18T07:39:04.930Z,13.00
2023-07-18T07:41:33.305Z,13.60
2023-07-18T07:44:01.528Z,12.25
2023-07-18T07:46:34.022Z,14.25
2023-07-18T07:49:05.290Z,13.50
2023-07-18T07:51:34.831Z,14.50
2023-07-18T07:54:03.237Z,12.00
2023-07-18T07:56:31.429Z,14.50
2023-07-18T07:59:10.484Z,12.00
2023-07-18T08:01:41.180Z,14.50
2023-07-18T08:04:12.690Z,15.50
2023-07-18T08:06:41.679Z,16.00
2023-07-18T08:09:10.261Z,13.25
2023-07-18T08:11:38.468Z,13.50
2023-07-18T08:14:06.774Z,9.25
2023-07-18T08:16:35.023Z,12.75
2023-07-18T08:19:04.870Z,14.75
2023-07-18T08:21:33.089Z,12.00
2023-07-18T08:24:01.625Z,14.25
2023-07-18T08:26:31.312Z,17.00
2023-07-18T08:28:59.622Z,15.75
2023-07-18T08:31:27.830Z,16.75
2023-07-18T08:33:56.078Z,16.75
2023-07-18T08:36:26.775Z,17.50
2023-07-18T08:38:55.359Z,16.25
2023-07-18T08:41:23.879Z,16.25
2023-07-18T08:43:52.244Z,14.50
2023-07-18T08:46:20.824Z,15.00
2023-07-18T08:48:58.281Z,16.25
2023-07-18T08:51:29.011Z,15.75
2023-07-18T08:53:58.551Z,10.75
2023-07-18T08:56:27.734Z,14.25
2023-07-18T08:58:56.904Z,15.50
2023-07-18T09:01:26.781Z,16.00
2023-07-18T09:03:56.357Z,14.75
2023-07-18T09:06:24.671Z,16.00
2023-07-18T09:08:56.359Z,13.75
2023-07-18T09:11:25.808Z,14.50
2023-07-18T09:13:54.151Z,13.00
2023-07-18T09:16:23.718Z,17.00
2023-07-18T09:18:52.377Z,16.00
2023-07-18T09:21:21.339Z,15.50
2023-07-18T09:23:49.871Z,14.50
2023-07-18T09:26:20.084Z,16.00
2023-07-18T09:28:48.589Z,17.00
2023-07-18T09:31:20.443Z,16.00
2023-07-18T09:33:49.495Z,17.25
2023-07-18T09:36:19.316Z,15.50
2023-07-18T09:38:48.074Z,15.00
2023-07-18T09:41:17.569Z,15.00
2023-07-18T09:43:49.028Z,16.75
2023-07-18T09:46:18.961Z,16.00
2023-07-18T09:48:50.936Z,16.75
2023-07-18T09:51:23.885Z,16.25
2023-07-18T09:53:55.020Z,17.00
2023-07-18T09:56:24.076Z,17.25
2023-07-18T09:58:54.667Z,17.75
2023-07-18T10:01:23.479Z,17.00
2023-07-18T10:03:54.185Z,16.00
2023-07-18T10:06:23.177Z,16.50
2023-07-18T10:08:51.710Z,15.50
2023-07-18T10:11:20.219Z,17.75
2023-07-18T10:14:03.886Z,17.50
2023-07-18T10:16:36.781Z,18.00
2023-07-18T10:19:18.142Z,18.50
2023-07-18T10:21:47.115Z,17.00
2023-07-18T10:24:33.309Z,15.25
2023-07-18T10:27:02.375Z,18.50
2023-07-18T10:29:34.146Z,17.50
2023-07-18T10:32:06.220Z,18.00
2023-07-18T10:34:39.549Z,19.00
2023-07-18T10:37:09.251Z,15.00
2023-07-18T10:39:40.453Z,17.50
2023-07-18T10:42:09.967Z,18.00
2023-07-18T10:44:39.457Z,18.25
2023-07-18T10:47:16.677Z,18.50
2023-07-18T10:49:46.225Z,19.75
2023-07-18T10:52:14.954Z,18.00
2023-07-18T10:54:45.324Z,19.00
2023-07-18T10:57:14.377Z,17.50
2023-07-18T10:59:43.848Z,18.00
2023-07-18T11:02:12.394Z,17.75
2023-07-18T11:04:42.336Z,19.00
2023-07-18T11:07:11.897Z,19.50
2023-07-18T11:09:43.335Z,19.50
2023-07-18T11:12:18.032Z,19.50
2023-07-18T11:14:48.580Z,18.00
2023-07-18T11:17:18.656Z,19.00
2023-07-18T11:19:49.504Z,17.50
2023-07-18T11:22:18.106Z,17.75
2023-07-18T11:24:47.399Z,19.00
2023-07-18T11:27:17.175Z,19.00
2023-07-18T11:29:51.932Z,17.00
2023-07-18T11:32:33.590Z,21.00
2023-07-18T11:35:04.026Z,19.25
2023-07-18T11:37:36.394Z,19.00
2023-07-18T11:40:11.336Z,19.75
2023-07-18T11:42:44.279Z,17.00
2023-07-18T11:45:12.730Z,21.00
2023-07-18T11:47:44.434Z,19.00
2023-07-18T11:50:14.490Z,20.75
2023-07-18T11:52:43.470Z,20.75
2023-07-18T11:55:11.992Z,20.25
2023-07-18T11:57:40.401Z,20.50
2023-07-18T12:00:10.131Z,21.50
2023-07-18T12:02:42.441Z,20.00
2023-07-18T12:05:10.896Z,20.25
2023-07-18T12:07:40.627Z,20.00
2023-07-18T12:10:11.634Z,20.00
2023-07-18T12:12:40.704Z,17.50
2023-07-18T12:15:09.833Z,17.00
2023-07-18T12:17:39.903Z,16.75
2023-07-18T12:20:09.176Z,18.00
2023-07-18T12:22:39.024Z,15.00
2023-07-18T12:25:09.688Z,10.50
2023-07-18T12:27:38.093Z,8.50
2023-07-18T12:30:07.098Z,7.50
2023-07-18T12:32:36.356Z,9.00
2023-07-18T12:35:04.849Z,9.00
2023-07-18T12:37:34.455Z,7.00
2023-07-18T12:40:02.808Z,8.20
2023-07-18T12:42:34.660Z,7.50
2023-07-18T12:45:02.931Z,8.25
2023-07-18T12:47:35.948Z,7.00
2023-07-18T12:50:09.192Z,7.25
2023-07-18T12:52:37.554Z,8.00
2023-07-18T12:55:06.747Z,7.50
2023-07-18T12:57:36.654Z,5.60
2023-07-18T13:00:06.578Z,8.00
2023-07-18T13:02:35.247Z,10.00
2023-07-18T13:05:04.051Z,8.50
2023-07-18T13:07:35.174Z,7.25
2023-07-18T13:10:03.709Z,8.25
2023-07-18T13:12:34.296Z,7.00
2023-07-18T13:15:04.306Z,9.20
2023-07-18T13:17:33.890Z,7.00
2023-07-18T13:20:02.209Z,8.50
2023-07-18T13:22:33.302Z,14.00
2023-07-18T13:25:01.626Z,16.50
2023-07-18T13:27:32.469Z,19.00
2023-07-18T13:30:00.720Z,17.50
2023-07-18T13:32:30.498Z,18.00
2023-07-18T13:34:58.818Z,16.00
2023-07-18T13:37:27.364Z,19.00
2023-07-18T13:39:55.596Z,18.50
2023-07-18T13:42:24.048Z,20.25
2023-07-18T13:44:53.239Z,18.25
2023-07-18T13:47:21.870Z,18.75
2023-07-18T13:49:53.088Z,23.00
2023-07-18T13:52:23.322Z,19.75
2023-07-18T13:54:51.707Z,19.00
2023-07-18T13:57:20.315Z,18.00
2023-07-18T13:59:48.598Z,18.50
2023-07-18T14:02:17.708Z,16.00
2023-07-18T14:04:46.423Z,15.50
2023-07-18T14:07:16.429Z,19.00
2023-07-18T14:09:44.563Z,17.00
2023-07-18T14:12:13.490Z,16.50
2023-07-18T14:14:42.314Z,16.50
2023-07-18T14:17:10.511Z,16.25
2023-07-18T14:19:38.743Z,16.00
2023-07-18T14:22:10.610Z,11.50
2023-07-18T14:24:40.276Z,16.00
2023-07-18T14:27:09.608Z,18.75
2023-07-18T14:29:37.995Z,18.25
2023-07-18T14:32:10.211Z,18.50
2023-07-18T14:34:39.056Z,19.50
2023-07-18T14:37:07.672Z,18.25
2023-07-18T14:39:39.629Z,16.25
2023-07-18T14:42:09.890Z,16.00
2023-07-18T14:44:38.316Z,16.75
2023-07-18T14:47:06.876Z,25.00
2023-07-18T14:49:35.519Z,21.00
2023-07-18T14:52:03.730Z,19.00
2023-07-18T14:54:32.045Z,21.00
2023-07-18T14:57:03.076Z,20.00
2023-07-18T14:59:33.437Z,21.00
2023-07-18T15:02:02.080Z,22.00
2023-07-18T15:04:30.405Z,21.00
2023-07-18T15:06:59.169Z,19.50
2023-07-18T15:09:27.531Z,19.00
2023-07-18T15:11:55.753Z,19.50
2023-07-18T15:14:24.058Z,20.00
2023-07-18T15:16:53.859Z,18.75
2023-07-18T15:19:22.204Z,20.75
2023-07-18T15:21:50.510Z,20.75
2023-07-18T15:24:18.881Z,20.75
2023-07-18T15:26:47.439Z,12.75
2023-07-18T15:29:15.675Z,21.00
2023-07-18T15:31:44.695Z,21.00
2023-07-18T15:34:14.476Z,20.25
2023-07-18T15:36:45.360Z,21.00
2023-07-18T15:39:13.746Z,20.50
2023-07-18T15:41:42.247Z,21.50
2023-07-18T15:44:10.610Z,20.50
2023-07-18T15:46:39.570Z,22.00
2023-07-18T15:49:08.266Z,21.00
2023-07-18T15:51:38.033Z,22.75
2023-07-18T15:54:06.471Z,20.50
2023-07-18T15:56:34.717Z,20.75
2023-07-18T15:59:03.381Z,21.00
2023-07-18T16:01:31.703Z,17.25
2023-07-18T16:04:00.192Z,21.00
2023-07-18T16:06:28.710Z,21.00
2023-07-18T16:08:59.196Z,20.75
2023-07-18T16:11:27.423Z,21.00
2023-07-18T16:13:55.869Z,21.50
2023-07-18T16:16:25.492Z,21.00
2023-07-18T16:18:54.547Z,21.00
2023-07-18T16:21:23.319Z,21.75
2023-07-18T16:23:51.855Z,21.75
2023-07-18T16:26:22.439Z,20.00
2023-07-18T16:28:51.305Z,20.50
2023-07-18T16:31:20.864Z,20.25
2023-07-18T16:33:49.285Z,22.00
2023-07-18T16:36:18.004Z,21.00
2023-07-18T16:38:48.904Z,23.00
2023-07-18T16:41:17.121Z,21.25
2023-07-18T16:43:46.923Z,23.00
2023-07-18T16:46:15.583Z,22.00
2023-07-18T16:48:44.027Z,22.75
2023-07-18T16:51:14.509Z,23.00
2023-07-18T16:53:43.112Z,25.00
2023-07-18T16:56:13.045Z,23.25
2023-07-18T16:58:43.118Z,20.75
2023-07-18T17:01:16.388Z,17.00
2023-07-18T17:03:45.096Z,19.00
2023-07-18T17:06:13.737Z,20.00
2023-07-18T17:08:44.702Z,19.25
2023-07-18T17:11:14.395Z,19.00
2023-07-18T17:13:43.348Z,20.50
2023-07-18T17:16:12.850Z,6.00
2023-07-18T17:18:42.604Z,21.00
2023-07-18T17:21:12.646Z,20.00
2023-07-18T17:23:41.029Z,20.00
2023-07-18T17:26:10.331Z,20.50
2023-07-18T17:28:38.763Z,21.25
2023-07-18T17:31:07.154Z,22.75
2023-07-18T17:33:35.592Z,23.50
2023-07-18T17:36:06.244Z,22.75
2023-07-18T17:38:46.986Z,19.00
2023-07-18T17:41:18.247Z,22.00
2023-07-18T17:43:49.226Z,21.00
2023-07-18T17:46:17.727Z,20.25
2023-07-18T17:48:46.835Z,17.00
2023-07-18T17:51:17.022Z,17.50
2023-07-18T17:53:45.757Z,18.25
2023-07-18T17:56:14.094Z,16.00
2023-07-18T17:58:43.103Z,21.00
2023-07-18T18:01:11.361Z,18.25
2023-07-18T18:03:40.713Z,18.00
2023-07-18T18:06:09.912Z,14.25
2023-07-18T18:08:39.656Z,17.00
2023-07-18T18:11:08.123Z,15.00
2023-07-18T18:13:36.531Z,17.75
2023-07-18T18:16:08.757Z,17.25
2023-07-18T18:18:38.501Z,18.00
2023-07-18T18:21:09.391Z,18.25
2023-07-18T18:23:40.913Z,17.00
2023-07-18T18:26:11.369Z,15.50
2023-07-18T18:28:40.194Z,14.25
2023-07-18T18:31:08.768Z,16.00
2023-07-18T18:33:37.306Z,15.75
2023-07-18T18:36:05.928Z,14.00
2023-07-18T18:38:34.333Z,15.50
2023-07-18T18:41:04.600Z,14.75
2023-07-18T18:43:34.895Z,15.50
2023-07-18T18:46:09.771Z,12.00
2023-07-18T18:48:38.506Z,16.50
2023-07-18T18:51:06.795Z,21.00
2023-07-18T18:53:35.264Z,12.25
2023-07-18T18:56:05.439Z,14.00
2023-07-18T18:58:35.187Z,13.50
2023-07-18T19:01:03.436Z,11.00
2023-07-18T19:03:32.759Z,11.00
2023-07-18T19:06:01.527Z,11.75
2023-07-18T19:08:30.009Z,11.25
2023-07-18T19:11:07.154Z,12.00
2023-07-18T19:13:38.233Z,8.50
2023-07-18T19:16:07.998Z,11.00
2023-07-18T19:18:37.099Z,10.25
2023-07-18T19:21:05.668Z,10.00
2023-07-18T19:23:34.009Z,10.00
2023-07-18T19:26:02.235Z,11.00
2023-07-18T19:28:30.480Z,15.25
2023-07-18T19:31:00.281Z,11.75
2023-07-18T19:33:28.625Z,12.25
2023-07-18T19:35:56.924Z,10.00
2023-07-18T19:38:25.323Z,11.00
2023-07-18T19:40:53.748Z,10.50
2023-07-18T19:43:22.071Z,12.75
2023-07-18T19:45:50.575Z,9.00
2023-07-18T19:48:21.200Z,9.50
2023-07-18T19:50:50.056Z,13.00
2023-07-18T19:53:19.052Z,11.50
2023-07-18T19:55:49.062Z,10.50
2023-07-18T19:58:17.359Z,13.00
2023-07-18T20:00:45.911Z,13.00
2023-07-18T20:03:14.397Z,13.25
2023-07-18T20:05:44.876Z,14.25
2023-07-18T20:08:13.267Z,14.00
2023-07-18T20:10:41.637Z,10.50
2023-07-18T20:13:10.395Z,14.50
2023-07-18T20:15:38.672Z,15.00
2023-07-18T20:18:07.104Z,11.50
2023-07-18T20:20:35.325Z,9.00
2023-07-18T20:23:05.273Z,8.00
2023-07-18T20:25:33.575Z,7.75
2023-07-18T20:28:02.094Z,5.75
2023-07-18T20:30:30.525Z,6.75
2023-07-18T20:32:59.881Z,5.50
2023-07-18T20:35:28.607Z,5.50
2023-07-18T20:37:57.062Z,5.75
2023-07-18T20:40:26.744Z,5.25
2023-07-18T20:42:55.113Z,3.25
2023-07-18T20:45:25.256Z,5.00
2023-07-18T20:47:53.572Z,5.00
2023-07-18T20:50:22.303Z,5.00
2023-07-18T20:52:50.687Z,4.25
2023-07-18T20:55:18.973Z,5.00
2023-07-18T20:57:50.999Z,5.00
2023-07-18T21:00:19.360Z,6.00
2023-07-18T21:02:47.807Z,5.00
2023-07-18T21:05:16.746Z,5.00
2023-07-18T21:07:45.168Z,3.20
2023-07-18T21:10:13.456Z,2.00
2023-07-18T21:12:44.189Z,3.00
2023-07-18T21:15:16.152Z,2.40
2023-07-18T21:17:44.498Z,3.00
2023-07-18T21:20:12.983Z,3.00
2023-07-18T21:22:41.274Z,1.80
2023-07-18T21:25:10.093Z,1.80
2023-07-18T21:27:38.281Z,2.00
2023-07-18T21:30:09.140Z,2.00
2023-07-18T21:32:38.939Z,1.00
2023-07-18T21:35:07.780Z,2.00
2023-07-18T21:37:35.987Z,2.00
2023-07-18T21:40:04.326Z,2.00
2023-07-18T21:42:32.818Z,1.80
2023-07-18T21:45:01.182Z,1.40
2023-07-18T21:47:29.579Z,1.75
2023-07-18T21:49:59.239Z,2.00
2023-07-18T21:52:27.917Z,2.25
2023-07-18T21:54:56.651Z,3.80
2023-07-18T21:57:24.933Z,2.00
2023-07-18T21:59:53.431Z,2.00
2023-07-18T22:02:22.250Z,1.50
2023-07-18T22:04:50.488Z,0.75
2023-07-18T22:07:20.096Z,1.00
2023-07-18T22:09:48.443Z,0.00
2023-07-18T22:12:16.745Z,0.60
2023-07-18T22:14:45.143Z,0.00
2023-07-18T22:17:13.347Z,1.00
2023-07-18T22:19:41.775Z,1.00
2023-07-18T22:22:10.074Z,0.75
2023-07-18T22:24:40.566Z,0.20
2023-07-18T22:27:08.869Z,1.00
2023-07-18T22:29:37.356Z,2.00
2023-07-18T22:32:06.089Z,1.00
2023-07-18T22:34:34.494Z,0.40
2023-07-18T22:37:02.950Z,4.00
2023-07-18T22:39:36.445Z,1.00
2023-07-18T22:42:17.421Z,5.40
2023-07-18T22:44:46.107Z,3.00
2023-07-18T22:47:14.636Z,3.00
2023-07-18T22:49:43.002Z,2.00
2023-07-18T22:52:13.668Z,2.00
2023-07-18T22:54:42.053Z,2.00
2023-07-18T22:57:10.225Z,2.50
2023-07-18T22:59:41.598Z,3.00
2023-07-18T23:02:10.209Z,3.50
2023-07-18T23:04:38.426Z,1.33
2023-07-18T23:07:07.143Z,3.00
2023-07-18T23:09:35.469Z,3.00
2023-07-18T23:12:04.097Z,3.00
2023-07-18T23:14:32.337Z,2.00
2023-07-18T23:17:02.079Z,1.00
2023-07-18T23:19:30.547Z,3.00
2023-07-18T23:21:58.719Z,2.75
2023-07-18T23:24:26.910Z,1.25
2023-07-18T23:26:55.200Z,3.00
2023-07-18T23:29:23.315Z,3.50
2023-07-18T23:31:51.617Z,2.75
2023-07-18T23:34:21.276Z,3.00
2023-07-18T23:36:49.480Z,2.00
2023-07-18T23:39:17.922Z,3.00
2023-07-18T23:41:46.203Z,2.75
2023-07-18T23:44:14.432Z,3.00
2023-07-18T23:46:42.665Z,2.00
2023-07-18T23:49:10.942Z,3.00
2023-07-18T23:51:40.899Z,3.00
2023-07-18T23:54:09.377Z,2.00
2023-07-18T23:56:37.534Z,3.25
2023-07-18T23:59:05.760Z,2.75
